createdAt,value
2023-04-26T00:00:09.368Z,1.20
2023-04-26T00:02:37.201Z,1.33
2023-04-26T00:05:05.437Z,1.33
2023-04-26T00:07:33.053Z,1.17
2023-04-26T00:10:00.605Z,1.27
2023-04-26T00:12:28.051Z,1.10
2023-04-26T00:14:55.507Z,1.20
2023-04-26T00:17:24.983Z,1.00
2023-04-26T00:19:52.357Z,1.20
2023-04-26T00:22:20.215Z,1.30
2023-04-26T00:24:50.186Z,1.20
2023-04-26T00:27:17.790Z,1.20
2023-04-26T00:29:45.307Z,1.20
2023-04-26T00:32:12.791Z,1.17
2023-04-26T00:34:40.469Z,1.33
2023-04-26T00:37:08.160Z,1.40
2023-04-26T00:39:35.743Z,1.20
2023-04-26T00:42:03.339Z,1.30
2023-04-26T00:44:30.794Z,1.10
2023-04-26T00:46:58.477Z,1.07
2023-04-26T00:49:26.439Z,1.60
2023-04-26T00:51:54.303Z,1.20
2023-04-26T00:54:22.324Z,1.50
2023-04-26T00:56:52.179Z,1.20
2023-04-26T00:59:20.871Z,1.10
2023-04-26T01:01:49.481Z,1.10
2023-04-26T01:04:17.898Z,1.20
2023-04-26T01:06:46.171Z,1.10
2023-04-26T01:09:15.665Z,1.10
2023-04-26T01:11:43.849Z,1.23
2023-04-26T01:14:11.342Z,1.30
2023-04-26T01:16:40.897Z,1.20
2023-04-26T01:19:10.977Z,1.33
2023-04-26T01:21:39.973Z,1.20
2023-04-26T01:24:08.233Z,1.20
2023-04-26T01:26:48.244Z,1.20
2023-04-26T01:29:20.006Z,1.43
2023-04-26T01:31:47.692Z,1.27
2023-04-26T01:34:15.242Z,1.20
2023-04-26T01:36:42.995Z,1.10
2023-04-26T01:39:10.374Z,1.10
2023-04-26T01:41:37.795Z,1.20
2023-04-26T01:44:05.363Z,1.30
2023-04-26T01:46:32.862Z,1.07
2023-04-26T01:49:00.308Z,1.30
2023-04-26T01:51:27.755Z,1.77
2023-04-26T01:53:55.187Z,1.27
2023-04-26T01:56:24.644Z,1.17
2023-04-26T01:58:52.308Z,1.47
2023-04-26T02:01:20.113Z,1.23
2023-04-26T02:03:47.515Z,1.30
2023-04-26T02:06:14.879Z,1.23
2023-04-26T02:08:42.431Z,1.30
2023-04-26T02:11:10.131Z,1.23
2023-04-26T02:13:37.897Z,1.13
2023-04-26T02:16:06.303Z,1.17
2023-04-26T02:18:34.461Z,1.33
2023-04-26T02:21:01.800Z,1.37
2023-04-26T02:23:30.066Z,1.17
2023-04-26T02:25:58.017Z,1.40
2023-04-26T02:28:25.578Z,1.27
2023-04-26T02:30:56.805Z,1.10
2023-04-26T02:33:25.140Z,1.27
2023-04-26T02:35:52.547Z,1.40
2023-04-26T02:38:20.164Z,1.20
2023-04-26T02:40:47.927Z,1.60
2023-04-26T02:43:17.106Z,1.20
2023-04-26T02:45:44.687Z,1.30
2023-04-26T02:48:14.027Z,1.30
2023-04-26T02:50:42.120Z,1.40
2023-04-26T02:53:10.220Z,1.23
2023-04-26T02:55:39.247Z,1.30
2023-04-26T02:58:06.596Z,1.20
2023-04-26T03:00:34.317Z,1.30
2023-04-26T03:03:02.886Z,1.30
2023-04-26T03:05:30.665Z,1.10
2023-04-26T03:07:58.518Z,1.23
2023-04-26T03:10:25.927Z,1.10
2023-04-26T03:12:53.408Z,1.10
2023-04-26T03:15:20.783Z,1.43
2023-04-26T03:17:48.215Z,1.10
2023-04-26T03:20:16.181Z,1.20
2023-04-26T03:22:43.650Z,1.10
2023-04-26T03:25:11.110Z,1.10
2023-04-26T03:27:38.449Z,0.93
2023-04-26T03:30:06.172Z,1.00
2023-04-26T03:32:35.318Z,1.13
2023-04-26T03:35:02.926Z,1.00
2023-04-26T03:37:30.463Z,1.13
2023-04-26T03:40:04.471Z,1.20
2023-04-26T03:42:33.548Z,1.20
2023-04-26T03:45:00.911Z,1.27
2023-04-26T03:47:28.516Z,1.30
2023-04-26T03:49:55.938Z,1.00
2023-04-26T03:52:23.395Z,1.27
2023-04-26T03:54:50.947Z,1.10
2023-04-26T03:57:18.457Z,1.10
2023-04-26T03:59:46.011Z,1.20
2023-04-26T04:02:13.539Z,1.20
2023-04-26T04:04:42.338Z,1.00
2023-04-26T04:07:09.958Z,1.00
2023-04-26T04:09:37.635Z,1.10
2023-04-26T04:12:05.022Z,1.20
2023-04-26T04:14:33.124Z,1.20
2023-04-26T04:17:00.932Z,1.30
2023-04-26T04:19:29.260Z,1.17
2023-04-26T04:21:56.621Z,1.20
2023-04-26T04:24:25.740Z,1.20
2023-04-26T04:26:53.416Z,1.07
2023-04-26T04:29:21.142Z,1.30
2023-04-26T04:31:48.862Z,1.20
2023-04-26T04:34:16.478Z,1.50
2023-04-26T04:36:44.469Z,1.33
2023-04-26T04:39:16.375Z,1.47
2023-04-26T04:41:48.328Z,1.27
2023-04-26T04:44:17.305Z,1.60
2023-04-26T04:46:45.467Z,1.40
2023-04-26T04:49:13.226Z,1.40
2023-04-26T04:51:40.763Z,1.37
2023-04-26T04:54:15.384Z,1.57
2023-04-26T04:56:43.106Z,1.40
2023-04-26T04:59:11.775Z,1.50
2023-04-26T05:01:39.761Z,1.60
2023-04-26T05:04:11.593Z,1.70
2023-04-26T05:06:39.252Z,1.50
2023-04-26T05:09:06.822Z,1.40
2023-04-26T05:11:34.937Z,1.50
2023-04-26T05:14:03.706Z,1.30
2023-04-26T05:16:31.593Z,1.63
2023-04-26T05:19:00.832Z,1.50
2023-04-26T05:21:28.192Z,1.63
2023-04-26T05:23:55.796Z,1.60
2023-04-26T05:26:23.405Z,1.50
2023-04-26T05:29:13.404Z,1.65
2023-04-26T05:31:52.282Z,1.60
2023-04-26T05:34:33.904Z,1.40
2023-04-26T05:37:01.416Z,1.30
2023-04-26T05:39:28.843Z,1.50
2023-04-26T05:41:56.704Z,1.50
2023-04-26T05:44:24.586Z,1.60
2023-04-26T05:46:52.529Z,1.37
2023-04-26T05:49:19.975Z,1.30
2023-04-26T05:51:47.279Z,1.73
2023-04-26T05:54:14.878Z,1.40
2023-04-26T05:56:42.438Z,1.50
2023-04-26T05:59:12.218Z,1.80
2023-04-26T06:01:39.777Z,1.60
2023-04-26T06:04:07.977Z,1.50
2023-04-26T06:06:46.475Z,1.40
2023-04-26T06:09:14.347Z,1.60
2023-04-26T06:11:41.734Z,1.60
2023-04-26T06:14:14.385Z,1.97
2023-04-26T06:16:51.124Z,1.40
2023-04-26T06:19:18.446Z,1.57
2023-04-26T06:21:46.195Z,1.53
2023-04-26T06:24:14.217Z,1.50
2023-04-26T06:26:41.869Z,1.83
2023-04-26T06:29:09.434Z,1.60
2023-04-26T06:31:37.090Z,2.00
2023-04-26T06:34:05.328Z,1.50
2023-04-26T06:36:32.823Z,1.60
2023-04-26T06:39:00.339Z,1.60
2023-04-26T06:41:27.685Z,1.70
2023-04-26T06:43:55.714Z,1.63
2023-04-26T06:46:28.427Z,1.60
2023-04-26T06:48:56.266Z,1.67
2023-04-26T06:51:25.583Z,1.50
2023-04-26T06:53:53.143Z,1.60
2023-04-26T06:56:20.765Z,1.60
2023-04-26T06:59:01.696Z,1.90
2023-04-26T07:01:29.757Z,1.40
2023-04-26T07:03:57.990Z,1.63
2023-04-26T07:06:27.243Z,1.50
2023-04-26T07:08:54.828Z,1.40
2023-04-26T07:11:24.621Z,1.40
2023-04-26T07:13:53.711Z,1.60
2023-04-26T07:16:21.337Z,1.60
2023-04-26T07:18:48.789Z,1.40
2023-04-26T07:21:16.327Z,1.37
2023-04-26T07:23:43.943Z,1.60
2023-04-26T07:26:12.103Z,1.70
2023-04-26T07:28:39.470Z,1.60
2023-04-26T07:31:09.189Z,1.50
2023-04-26T07:33:38.171Z,1.40
2023-04-26T07:36:06.118Z,1.50
2023-04-26T07:38:33.583Z,1.40
2023-04-26T07:41:01.420Z,1.50
2023-04-26T07:43:29.004Z,1.50
2023-04-26T07:45:56.422Z,1.60
2023-04-26T07:48:23.784Z,1.50
2023-04-26T07:50:52.174Z,1.47
2023-04-26T07:53:19.639Z,1.50
2023-04-26T07:55:47.097Z,1.40
2023-04-26T07:58:14.749Z,1.40
2023-04-26T08:00:42.556Z,1.50
2023-04-26T08:03:10.431Z,1.30
2023-04-26T08:05:38.591Z,1.27
2023-04-26T08:08:06.629Z,1.40
2023-04-26T08:10:34.135Z,1.60
2023-04-26T08:13:03.481Z,1.63
2023-04-26T08:15:32.624Z,1.60
2023-04-26T08:18:00.129Z,1.50
2023-04-26T08:20:27.617Z,1.40
2023-04-26T08:22:58.373Z,1.20
2023-04-26T08:25:26.163Z,1.30
2023-04-26T08:27:53.543Z,1.57
2023-04-26T08:30:21.651Z,1.33
2023-04-26T08:32:49.080Z,1.40
2023-04-26T08:35:16.619Z,1.50
2023-04-26T08:37:44.003Z,1.37
2023-04-26T08:40:11.437Z,1.30
2023-04-26T08:42:43.996Z,1.37
2023-04-26T08:45:11.882Z,1.30
2023-04-26T08:47:47.785Z,1.43
2023-04-26T08:50:16.262Z,1.40
2023-04-26T08:52:44.759Z,1.50
2023-04-26T08:55:16.435Z,1.40
2023-04-26T08:57:44.739Z,1.40
2023-04-26T09:00:15.957Z,1.30
2023-04-26T09:02:46.870Z,1.30
2023-04-26T09:05:14.683Z,1.20
2023-04-26T09:07:43.817Z,1.20
2023-04-26T09:10:12.382Z,1.30
2023-04-26T09:12:40.172Z,1.20
2023-04-26T09:15:07.900Z,1.20
2023-04-26T09:17:38.434Z,1.30
2023-04-26T09:20:26.356Z,1.30
2023-04-26T09:22:54.806Z,1.60
2023-04-26T09:25:29.924Z,1.20
2023-04-26T09:27:57.897Z,1.30
2023-04-26T09:30:25.617Z,1.57
2023-04-26T09:33:00.680Z,1.23
2023-04-26T09:35:32.616Z,1.10
2023-04-26T09:38:09.731Z,1.40
2023-04-26T09:40:45.521Z,1.23
2023-04-26T09:43:15.959Z,1.40
2023-04-26T09:45:49.169Z,1.43
2023-04-26T09:48:34.577Z,1.33
2023-04-26T09:51:05.699Z,1.20
2023-04-26T09:53:40.035Z,1.40
2023-04-26T09:56:08.466Z,1.00
2023-04-26T09:58:40.104Z,1.03
2023-04-26T10:01:11.980Z,1.20
2023-04-26T10:03:39.943Z,1.33
2023-04-26T10:06:07.810Z,1.30
2023-04-26T10:08:36.403Z,1.30
2023-04-26T10:11:11.380Z,1.17
2023-04-26T10:13:38.963Z,1.50
2023-04-26T10:16:06.964Z,1.00
2023-04-26T10:18:34.972Z,1.10
2023-04-26T10:21:11.693Z,1.13
2023-04-26T10:23:39.463Z,1.30
2023-04-26T10:26:07.488Z,1.50
2023-04-26T10:28:41.525Z,1.17
2023-04-26T10:31:09.108Z,1.90
2023-04-26T10:33:37.364Z,1.20
2023-04-26T10:36:08.521Z,1.13
2023-04-26T10:38:55.207Z,1.20
2023-04-26T10:41:32.922Z,1.20
2023-04-26T10:44:01.493Z,1.27
2023-04-26T10:46:36.763Z,1.33
2023-04-26T10:49:14.874Z,1.23
2023-04-26T10:51:42.958Z,1.13
2023-04-26T10:54:10.469Z,1.27
2023-04-26T10:56:41.169Z,1.20
2023-04-26T11:01:46.308Z,1.20
2023-04-26T11:04:14.175Z,1.10
2023-04-26T11:06:49.150Z,1.23
2023-04-26T11:09:36.288Z,1.20
2023-04-26T11:12:14.044Z,1.70
2023-04-26T11:14:46.069Z,1.17
2023-04-26T11:17:13.704Z,1.13
2023-04-26T11:19:47.628Z,1.10
2023-04-26T11:22:15.056Z,1.20
2023-04-26T11:24:43.602Z,1.50
2023-04-26T11:27:11.569Z,1.10
2023-04-26T11:29:39.409Z,1.17
2023-04-26T11:32:07.282Z,1.00
2023-04-26T11:34:35.551Z,1.10
2023-04-26T11:37:05.170Z,1.30
2023-04-26T11:39:33.515Z,1.20
2023-04-26T11:42:10.008Z,1.10
2023-04-26T11:44:37.939Z,0.80
2023-04-26T11:47:06.294Z,1.10
2023-04-26T11:49:34.230Z,1.20
2023-04-26T11:52:01.730Z,1.10
2023-04-26T11:54:35.872Z,1.30
2023-04-26T11:57:16.192Z,1.00
2023-04-26T11:59:44.484Z,1.20
2023-04-26T12:02:12.672Z,1.00
2023-04-26T12:04:41.501Z,1.30
2023-04-26T12:07:09.622Z,1.00
2023-04-26T12:09:41.734Z,0.90
2023-04-26T12:12:09.159Z,1.03
2023-04-26T12:14:37.561Z,1.30
2023-04-26T12:17:06.338Z,1.27
2023-04-26T12:19:37.928Z,1.30
2023-04-26T12:22:06.813Z,1.20
2023-04-26T12:24:36.812Z,1.20
2023-04-26T12:27:06.639Z,1.20
2023-04-26T12:29:34.478Z,1.20
2023-04-26T12:32:02.142Z,1.10
2023-04-26T12:34:29.744Z,1.10
2023-04-26T12:36:57.665Z,1.17
2023-04-26T12:39:24.999Z,1.17
2023-04-26T12:41:52.431Z,1.00
2023-04-26T12:44:22.075Z,1.20
2023-04-26T12:46:50.257Z,1.20
2023-04-26T12:49:17.800Z,1.20
2023-04-26T12:51:45.110Z,1.07
2023-04-26T12:54:12.714Z,1.07
2023-04-26T12:56:44.010Z,1.17
2023-04-26T12:59:11.668Z,1.40
2023-04-26T13:01:39.231Z,1.23
2023-04-26T13:04:07.024Z,1.20
2023-04-26T13:06:34.912Z,1.30
2023-04-26T13:09:04.402Z,1.30
2023-04-26T13:11:31.952Z,1.10
2023-04-26T13:13:59.653Z,1.07
2023-04-26T13:16:27.206Z,1.20
2023-04-26T13:18:55.524Z,0.97
2023-04-26T13:21:22.935Z,1.10
2023-04-26T13:23:50.473Z,1.30
2023-04-26T13:26:18.333Z,1.23
2023-04-26T13:28:45.900Z,1.10
2023-04-26T13:31:13.409Z,1.30
2023-04-26T13:33:40.961Z,1.13
2023-04-26T13:36:08.471Z,1.20
2023-04-26T13:38:35.957Z,1.30
2023-04-26T13:41:03.529Z,1.17
2023-04-26T13:43:31.053Z,1.30
2023-04-26T13:45:58.839Z,0.97
2023-04-26T13:48:26.742Z,1.17
2023-04-26T13:50:56.183Z,1.20
2023-04-26T13:53:23.549Z,1.03
2023-04-26T13:55:51.182Z,1.40
2023-04-26T13:58:18.600Z,1.23
2023-04-26T14:00:46.015Z,1.20
2023-04-26T14:03:13.582Z,1.10
2023-04-26T14:05:41.302Z,1.10
2023-04-26T14:08:08.784Z,1.20
2023-04-26T14:10:36.302Z,1.10
2023-04-26T14:13:03.626Z,1.00
2023-04-26T14:15:30.994Z,1.03
2023-04-26T14:17:58.389Z,1.10
2023-04-26T14:20:25.849Z,1.33
2023-04-26T14:22:53.305Z,1.23
2023-04-26T14:25:20.926Z,1.20
2023-04-26T14:27:48.693Z,1.30
2023-04-26T14:30:16.637Z,1.20
2023-04-26T14:32:44.007Z,1.20
2023-04-26T14:35:13.297Z,1.20
2023-04-26T14:37:40.694Z,1.27
2023-04-26T14:40:08.438Z,1.10
2023-04-26T14:42:36.221Z,1.10
2023-04-26T14:45:06.101Z,1.13
2023-04-26T14:47:33.541Z,1.23
2023-04-26T14:50:00.881Z,1.60
2023-04-26T14:52:29.174Z,4.13
2023-04-26T14:54:57.352Z,3.97
2023-04-26T14:57:24.864Z,3.20
2023-04-26T14:59:52.242Z,2.10
2023-04-26T15:02:19.699Z,1.60
2023-04-26T15:04:47.407Z,1.50
2023-04-26T15:07:28.723Z,1.80
2023-04-26T15:09:58.566Z,2.00
2023-04-26T15:12:26.168Z,1.33
2023-04-26T15:14:53.836Z,1.70
2023-04-26T15:17:21.322Z,2.00
2023-04-26T15:19:48.950Z,2.03
2023-04-26T15:22:16.569Z,1.90
2023-04-26T15:24:44.168Z,1.60
2023-04-26T15:27:12.982Z,1.97
2023-04-26T15:29:40.404Z,1.40
2023-04-26T15:32:08.274Z,1.50
2023-04-26T15:34:45.904Z,1.40
2023-04-26T15:37:13.279Z,1.63
2023-04-26T15:39:40.744Z,1.23
2023-04-26T15:42:08.216Z,1.57
2023-04-26T15:44:35.725Z,1.47
2023-04-26T15:47:03.772Z,1.40
2023-04-26T15:49:31.374Z,1.67
2023-04-26T15:51:58.887Z,1.50
2023-04-26T15:54:26.659Z,1.33
2023-04-26T15:56:55.262Z,1.70
2023-04-26T15:59:22.735Z,1.50
2023-04-26T16:01:50.282Z,1.77
2023-04-26T16:04:17.940Z,1.47
2023-04-26T16:06:45.551Z,1.50
2023-04-26T16:09:24.965Z,1.80
2023-04-26T16:11:52.994Z,1.47
2023-04-26T16:14:20.557Z,1.67
2023-04-26T16:16:48.044Z,1.60
2023-04-26T16:19:17.296Z,1.20
2023-04-26T16:21:44.734Z,1.40
2023-04-26T16:24:12.527Z,1.23
2023-04-26T16:26:42.162Z,1.20
2023-04-26T16:29:09.692Z,1.20
2023-04-26T16:31:37.172Z,1.70
2023-04-26T16:34:04.747Z,1.30
2023-04-26T16:36:33.019Z,1.50
2023-04-26T16:39:00.737Z,1.23
2023-04-26T16:41:28.320Z,1.30
2023-04-26T16:43:56.098Z,1.40
2023-04-26T16:46:23.640Z,1.20
2023-04-26T16:48:51.126Z,1.20
2023-04-26T16:51:18.545Z,1.20
2023-04-26T16:53:46.337Z,1.20
2023-04-26T16:56:13.842Z,1.50
2023-04-26T16:58:41.232Z,1.23
2023-04-26T17:01:08.717Z,1.33
2023-04-26T17:03:37.022Z,1.20
2023-04-26T17:06:06.660Z,1.30
2023-04-26T17:08:34.125Z,1.40
2023-04-26T17:11:01.549Z,1.30
2023-04-26T17:13:30.743Z,1.30
2023-04-26T17:15:58.375Z,1.20
2023-04-26T17:18:25.986Z,1.13
2023-04-26T17:20:56.192Z,1.10
2023-04-26T17:23:24.507Z,1.20
2023-04-26T17:25:53.350Z,1.10
2023-04-26T17:28:22.571Z,1.00
2023-04-26T17:30:49.994Z,1.57
2023-04-26T17:33:17.607Z,1.40
2023-04-26T17:35:47.214Z,1.60
2023-04-26T17:38:14.681Z,1.20
2023-04-26T17:40:42.053Z,1.20
2023-04-26T17:43:09.404Z,1.30
2023-04-26T17:45:36.920Z,1.20
2023-04-26T17:48:04.498Z,1.47
2023-04-26T17:50:31.905Z,1.17
2023-04-26T17:52:59.174Z,1.33
2023-04-26T17:55:26.941Z,1.27
2023-04-26T17:57:54.314Z,1.33
2023-04-26T18:00:22.005Z,1.37
2023-04-26T18:02:49.537Z,1.30
2023-04-26T18:05:17.172Z,1.23
2023-04-26T18:07:44.681Z,1.30
2023-04-26T18:10:12.026Z,1.10
2023-04-26T18:12:39.848Z,1.57
2023-04-26T18:15:07.765Z,1.23
2023-04-26T18:17:35.462Z,1.23
2023-04-26T18:20:03.228Z,1.53
2023-04-26T18:22:30.928Z,1.50
2023-04-26T18:24:58.775Z,1.20
2023-04-26T18:27:26.337Z,1.40
2023-04-26T18:29:53.744Z,1.43
2023-04-26T18:32:21.352Z,1.60
2023-04-26T18:34:49.028Z,1.40
2023-04-26T18:37:16.880Z,1.40
2023-04-26T18:39:44.811Z,1.50
2023-04-26T18:42:12.735Z,1.30
2023-04-26T18:44:40.175Z,1.30
2023-04-26T18:47:07.722Z,1.20
2023-04-26T18:49:35.313Z,1.37
2023-04-26T18:52:02.678Z,1.30
2023-04-26T18:54:32.098Z,1.63
2023-04-26T18:57:03.555Z,1.40
2023-04-26T18:59:32.323Z,1.17
2023-04-26T19:02:07.190Z,1.40
2023-04-26T19:04:40.828Z,1.20
2023-04-26T19:07:08.748Z,1.20
2023-04-26T19:09:50.534Z,1.30
2023-04-26T19:12:21.464Z,1.17
2023-04-26T19:14:49.048Z,1.37
2023-04-26T19:17:16.427Z,1.20
2023-04-26T19:19:43.958Z,1.53
2023-04-26T19:22:11.811Z,1.27
2023-04-26T19:24:39.236Z,1.60
2023-04-26T19:27:06.786Z,1.50
2023-04-26T19:29:36.824Z,1.50
2023-04-26T19:32:06.862Z,1.40
2023-04-26T19:34:35.017Z,1.40
2023-04-26T19:37:02.900Z,1.40
2023-04-26T19:39:30.548Z,1.20
2023-04-26T19:41:58.736Z,1.30
2023-04-26T19:44:26.227Z,1.50
2023-04-26T19:46:53.981Z,1.50
2023-04-26T19:49:21.952Z,1.30
2023-04-26T19:51:49.498Z,1.37
2023-04-26T19:54:19.962Z,1.40
2023-04-26T19:56:47.386Z,1.53
2023-04-26T19:59:15.151Z,1.50
2023-04-26T20:01:42.719Z,1.47
2023-04-26T20:04:10.444Z,1.30
2023-04-26T20:06:38.096Z,1.50
2023-04-26T20:09:06.987Z,1.57
2023-04-26T20:11:34.612Z,1.47
2023-04-26T20:14:01.965Z,1.47
2023-04-26T20:16:29.457Z,1.50
2023-04-26T20:18:56.991Z,1.50
2023-04-26T20:21:24.700Z,1.40
2023-04-26T20:23:52.670Z,1.20
2023-04-26T20:26:19.999Z,1.63
2023-04-26T20:28:47.617Z,1.43
2023-04-26T20:31:15.378Z,1.60
2023-04-26T20:33:43.170Z,1.43
2023-04-26T20:36:11.227Z,1.30
2023-04-26T20:38:39.463Z,1.23
2023-04-26T20:41:07.279Z,1.23
2023-04-26T20:43:34.628Z,1.50
2023-04-26T20:46:02.252Z,1.30
2023-04-26T20:48:29.652Z,1.33
2023-04-26T20:50:58.952Z,1.60
2023-04-26T20:53:26.968Z,1.60
2023-04-26T20:55:54.622Z,1.43
2023-04-26T20:58:21.934Z,1.43
2023-04-26T21:00:51.614Z,1.60
2023-04-26T21:03:19.612Z,1.37
2023-04-26T21:05:47.245Z,1.27
2023-04-26T21:08:15.141Z,1.53
2023-04-26T21:10:42.521Z,1.60
2023-04-26T21:13:10.135Z,1.63
2023-04-26T21:15:37.744Z,1.40
2023-04-26T21:18:05.351Z,1.37
2023-04-26T21:20:32.857Z,1.40
2023-04-26T21:23:00.441Z,1.47
2023-04-26T21:25:28.096Z,1.40
2023-04-26T21:27:55.476Z,1.50
2023-04-26T21:30:23.211Z,1.43
2023-04-26T21:32:50.825Z,1.60
2023-04-26T21:35:18.177Z,1.20
2023-04-26T21:37:45.520Z,1.40
2023-04-26T21:40:13.222Z,1.50
2023-04-26T21:42:41.234Z,1.60
2023-04-26T21:45:09.648Z,1.63
2023-04-26T21:47:37.055Z,1.80
2023-04-26T21:50:04.603Z,1.53
2023-04-26T21:52:31.948Z,1.37
2023-04-26T21:54:59.395Z,1.70
2023-04-26T21:57:27.371Z,1.50
2023-04-26T21:59:54.834Z,1.40
2023-04-26T22:02:22.865Z,1.50
2023-04-26T22:04:50.302Z,1.57
2023-04-26T22:07:17.761Z,1.30
2023-04-26T22:09:45.252Z,1.67
2023-04-26T22:12:12.856Z,1.70
2023-04-26T22:14:40.216Z,1.60
2023-04-26T22:17:07.611Z,1.63
2023-04-26T22:19:34.949Z,1.60
2023-04-26T22:22:02.403Z,1.53
2023-04-26T22:24:29.722Z,1.57
2023-04-26T22:26:57.030Z,1.27
2023-04-26T22:29:24.437Z,1.50
2023-04-26T22:31:51.896Z,1.53
2023-04-26T22:34:20.179Z,1.43
2023-04-26T22:36:47.621Z,1.73
2023-04-26T22:39:15.311Z,1.53
2023-04-26T22:41:42.785Z,1.53
2023-04-26T22:44:10.123Z,2.03
2023-04-26T22:46:37.576Z,1.73
2023-04-26T22:49:04.968Z,1.87
2023-04-26T22:51:32.527Z,1.83
2023-04-26T22:54:00.161Z,1.90
2023-04-26T22:56:27.922Z,1.90
2023-04-26T22:58:55.656Z,1.87
2023-04-26T23:01:23.076Z,1.80
2023-04-26T23:03:50.649Z,1.90
2023-04-26T23:06:18.042Z,2.00
2023-04-26T23:08:45.407Z,2.00
2023-04-26T23:11:12.960Z,1.80
2023-04-26T23:13:40.255Z,2.13
2023-04-26T23:16:07.923Z,2.07
2023-04-26T23:18:35.347Z,2.03
2023-04-26T23:21:02.696Z,2.47
2023-04-26T23:23:30.267Z,2.30
2023-04-26T23:25:57.866Z,2.43
2023-04-26T23:28:25.185Z,2.53
2023-04-26T23:30:52.585Z,2.40
2023-04-26T23:33:20.033Z,2.47
2023-04-26T23:35:47.417Z,2.87
2023-04-26T23:38:14.822Z,2.83
2023-04-26T23:40:42.185Z,2.50
2023-04-26T23:43:09.739Z,2.50
2023-04-26T23:45:37.328Z,2.73
2023-04-26T23:48:05.901Z,2.27
2023-04-26T23:50:33.277Z,2.67
2023-04-26T23:53:00.601Z,2.70
2023-04-26T23:55:28.052Z,2.63
2023-04-26T23:57:55.456Z,3.00
